sensor_id;sensor_type;location;lat;lon;timestamp;pressure;altitude;pressure_sealevel;temperature;humidity
52719;BME280;38616;42.140;24.760;2022-07-18T00:01:56;100038.00;;;25.71;29.25
52719;BME280;38616;42.140;24.760;2022-07-18T00:04:21;100041.16;;;25.69;29.03
52719;BME280;38616;42.140;24.760;2022-07-18T00:06:47;100037.47;;;25.61;28.92
52719;BME280;38616;42.140;24.760;2022-07-18T00:09:12;100037.19;;;25.70;29.23
52719;BME280;38616;42.140;24.760;2022-07-18T00:11:38;100041.13;;;25.92;28.37
52719;BME280;38616;42.140;24.760;2022-07-18T00:14:03;100034.22;;;25.82;28.64
52719;BME280;38616;42.140;24.760;2022-07-18T00:16:29;100039.53;;;25.91;27.95
52719;BME280;38616;42.140;24.760;2022-07-18T00:18:54;100049.56;;;25.73;28.22
52719;BME280;38616;42.140;24.760;2022-07-18T00:21:20;100048.84;;;25.76;28.02
52719;BME280;38616;42.140;24.760;2022-07-18T00:23:45;100045.69;;;25.54;28.24
52719;BME280;38616;42.140;24.760;2022-07-18T00:26:11;100049.41;;;25.89;27.85
52719;BME280;38616;42.140;24.760;2022-07-18T00:28:36;100052.84;;;26.05;27.64
52719;BME280;38616;42.140;24.760;2022-07-18T00:31:02;100044.31;;;26.18;27.55
52719;BME280;38616;42.140;24.760;2022-07-18T00:33:27;100036.34;;;25.66;27.47
52719;BME280;38616;42.140;24.760;2022-07-18T00:35:53;100041.13;;;25.65;26.92
52719;BME280;38616;42.140;24.760;2022-07-18T00:38:18;100047.09;;;25.67;26.92
52719;BME280;38616;42.140;24.760;2022-07-18T00:40:44;100041.16;;;25.69;26.85
52719;BME280;38616;42.140;24.760;2022-07-18T00:43:13;100041.16;;;25.69;26.60
52719;BME280;38616;42.140;24.760;2022-07-18T00:45:39;100047.41;;;25.62;27.13
52719;BME280;38616;42.140;24.760;2022-07-18T00:48:08;100041.47;;;25.41;26.31
52719;BME280;38616;42.140;24.760;2022-07-18T00:50:33;100054.16;;;25.38;25.79
52719;BME280;38616;42.140;24.760;2022-07-18T00:52:59;100044.34;;;25.44;26.36
52719;BME280;38616;42.140;24.760;2022-07-18T00:55:24;100054.19;;;25.42;25.78
52719;BME280;38616;42.140;24.760;2022-07-18T00:57:50;100053.41;;;25.41;26.02
52719;BME280;38616;42.140;24.760;2022-07-18T01:00:16;100062.09;;;25.40;25.90
52719;BME280;38616;42.140;24.760;2022-07-18T01:03:00;100051.94;;;25.47;26.32
52719;BME280;38616;42.140;24.760;2022-07-18T01:05:26;100056.09;;;25.14;25.99
52719;BME280;38616;42.140;24.760;2022-07-18T01:07:51;100058.09;;;25.14;25.90
52719;BME280;38616;42.140;24.760;2022-07-18T01:10:18;100056.22;;;25.21;25.83
52719;BME280;38616;42.140;24.760;2022-07-18T01:12:44;100058.91;;;24.94;25.53
52719;BME280;38616;42.140;24.760;2022-07-18T01:15:11;100066.34;;;25.10;25.44
52719;BME280;38616;42.140;24.760;2022-07-18T01:17:37;100065.16;;;24.52;26.35
52719;BME280;38616;42.140;24.760;2022-07-18T01:20:04;100069.59;;;24.73;26.34
52719;BME280;38616;42.140;24.760;2022-07-18T01:22:30;100063.00;;;24.81;26.02
52719;BME280;38616;42.140;24.760;2022-07-18T01:24:56;100056.56;;;24.97;25.85
52719;BME280;38616;42.140;24.760;2022-07-18T01:27:22;100058.88;;;25.14;25.75
52719;BME280;38616;42.140;24.760;2022-07-18T01:29:49;100057.16;;;24.67;26.04
52719;BME280;38616;42.140;24.760;2022-07-18T01:32:15;100061.97;;;24.70;26.10
52719;BME280;38616;42.140;24.760;2022-07-18T01:34:41;100060.88;;;24.74;26.42
52719;BME280;38616;42.140;24.760;2022-07-18T01:37:08;100059.34;;;24.57;26.17
52719;BME280;38616;42.140;24.760;2022-07-18T01:39:33;100060.00;;;24.15;26.94
52719;BME280;38616;42.140;24.760;2022-07-18T01:42:02;100067.34;;;24.07;26.43
52719;BME280;38616;42.140;24.760;2022-07-18T01:44:29;100071.00;;;23.95;27.20
52719;BME280;38616;42.140;24.760;2022-07-18T01:46:55;100067.97;;;24.00;27.15
52719;BME280;38616;42.140;24.760;2022-07-18T01:49:21;100062.94;;;23.90;27.46
52719;BME280;38616;42.140;24.760;2022-07-18T01:51:50;100069.81;;;23.96;27.92
52719;BME280;38616;42.140;24.760;2022-07-18T01:54:22;100070.28;;;24.14;27.86
52719;BME280;38616;42.140;24.760;2022-07-18T01:56:48;100068.53;;;24.06;28.06
52719;BME280;38616;42.140;24.760;2022-07-18T01:59:14;100073.63;;;24.04;28.31
52719;BME280;38616;42.140;24.760;2022-07-18T02:01:39;100070.91;;;24.08;28.19
52719;BME280;38616;42.140;24.760;2022-07-18T02:04:04;100071.28;;;24.06;28.50
52719;BME280;38616;42.140;24.760;2022-07-18T02:06:30;100068.41;;;23.86;28.41
52719;BME280;38616;42.140;24.760;2022-07-18T02:08:56;100075.75;;;24.11;28.36
52719;BME280;38616;42.140;24.760;2022-07-18T02:11:21;100076.03;;;24.05;28.75
52719;BME280;38616;42.140;24.760;2022-07-18T02:13:47;100077.97;;;24.21;27.85
52719;BME280;38616;42.140;24.760;2022-07-18T02:16:13;100079.56;;;24.22;28.14
52719;BME280;38616;42.140;24.760;2022-07-18T02:18:38;100079.50;;;24.18;28.70
52719;BME280;38616;42.140;24.760;2022-07-18T02:21:04;100081.13;;;24.19;28.50
52719;BME280;38616;42.140;24.760;2022-07-18T02:23:29;100087.75;;;24.15;28.50
52719;BME280;38616;42.140;24.760;2022-07-18T02:25:55;100084.97;;;24.15;28.85
52719;BME280;38616;42.140;24.760;2022-07-18T02:28:20;100087.75;;;24.15;29.21
52719;BME280;38616;42.140;24.760;2022-07-18T02:30:46;100083.75;;;23.64;29.93
52719;BME280;38616;42.140;24.760;2022-07-18T02:33:14;100091.22;;;23.48;30.74
52719;BME280;38616;42.140;24.760;2022-07-18T02:35:39;100092.75;;;23.45;30.36
52719;BME280;38616;42.140;24.760;2022-07-18T02:38:04;100091.41;;;23.55;30.65
52719;BME280;38616;42.140;24.760;2022-07-18T02:40:30;100089.53;;;23.59;29.99
52719;BME280;38616;42.140;24.760;2022-07-18T02:42:55;100096.50;;;23.37;30.21
52719;BME280;38616;42.140;24.760;2022-07-18T02:45:21;100099.34;;;22.96;31.27
52719;BME280;38616;42.140;24.760;2022-07-18T02:47:46;100101.69;;;22.81;31.44
52719;BME280;38616;42.140;24.760;2022-07-18T02:50:12;100107.56;;;23.08;31.18
52719;BME280;38616;42.140;24.760;2022-07-18T02:52:41;100106.78;;;23.08;31.17
52719;BME280;38616;42.140;24.760;2022-07-18T02:55:08;100100.63;;;23.14;31.16
52719;BME280;38616;42.140;24.760;2022-07-18T02:57:33;100103.31;;;23.11;31.24
52719;BME280;38616;42.140;24.760;2022-07-18T02:59:59;100099.81;;;23.14;30.90
52719;BME280;38616;42.140;24.760;2022-07-18T03:02:24;100102.72;;;23.05;30.93
52719;BME280;38616;42.140;24.760;2022-07-18T03:04:50;100096.09;;;22.94;31.10
52719;BME280;38616;42.140;24.760;2022-07-18T03:07:15;100105.38;;;23.14;30.04
52719;BME280;38616;42.140;24.760;2022-07-18T03:09:41;100100.63;;;23.14;30.18
52719;BME280;38616;42.140;24.760;2022-07-18T03:12:06;100101.03;;;23.29;29.63
52719;BME280;38616;42.140;24.760;2022-07-18T03:14:32;100100.94;;;23.25;30.02
52719;BME280;38616;42.140;24.760;2022-07-18T03:16:57;100103.03;;;23.28;29.72
52719;BME280;38616;42.140;24.760;2022-07-18T03:19:23;100107.22;;;23.38;29.93
52719;BME280;38616;42.140;24.760;2022-07-18T03:21:48;100097.03;;;23.42;29.70
52719;BME280;38616;42.140;24.760;2022-07-18T03:24:13;100100.06;;;23.37;29.45
52719;BME280;38616;42.140;24.760;2022-07-18T03:26:47;100092.19;;;23.23;29.45
52719;BME280;38616;42.140;24.760;2022-07-18T03:29:15;100103.47;;;23.30;29.46
52719;BME280;38616;42.140;24.760;2022-07-18T03:31:40;100108.84;;;23.55;28.86
52719;BME280;38616;42.140;24.760;2022-07-18T03:34:06;100105.69;;;23.41;29.07
52719;BME280;38616;42.140;24.760;2022-07-18T03:36:31;100105.09;;;23.19;28.84
52719;BME280;38616;42.140;24.760;2022-07-18T03:38:57;100106.31;;;23.34;29.02
52719;BME280;38616;42.140;24.760;2022-07-18T03:41:22;100111.34;;;23.16;29.03
52719;BME280;38616;42.140;24.760;2022-07-18T03:43:48;100109.84;;;23.18;28.83
52719;BME280;38616;42.140;24.760;2022-07-18T03:46:13;100103.03;;;23.60;28.41
52719;BME280;38616;42.140;24.760;2022-07-18T03:48:39;100105.28;;;23.55;28.40
52719;BME280;38616;42.140;24.760;2022-07-18T03:51:05;100119.56;;;23.41;28.71
52719;BME280;38616;42.140;24.760;2022-07-18T03:53:31;100110.28;;;23.21;28.58
52719;BME280;38616;42.140;24.760;2022-07-18T03:55:56;100119.53;;;23.25;28.88
52719;BME280;38616;42.140;24.760;2022-07-18T03:58:22;100121.97;;;22.85;29.02
52719;BME280;38616;42.140;24.760;2022-07-18T04:00:47;100124.91;;;23.05;28.82
52719;BME280;38616;42.140;24.760;2022-07-18T04:03:13;100132.00;;;23.18;28.71
52719;BME280;38616;42.140;24.760;2022-07-18T04:05:38;100136.13;;;22.96;28.93
52719;BME280;38616;42.140;24.760;2022-07-18T04:08:04;100132.03;;;23.06;29.08
52719;BME280;38616;42.140;24.760;2022-07-18T04:10:29;100138.41;;;23.07;29.01
52719;BME280;38616;42.140;24.760;2022-07-18T04:12:56;100142.28;;;23.46;29.20
52719;BME280;38616;42.140;24.760;2022-07-18T04:15:23;100131.75;;;23.52;28.18
52719;BME280;38616;42.140;24.760;2022-07-18T04:17:49;100139.94;;;23.33;28.33
52719;BME280;38616;42.140;24.760;2022-07-18T04:20:17;100126.44;;;23.31;27.95
52719;BME280;38616;42.140;24.760;2022-07-18T04:22:56;100126.63;;;23.38;27.94
52719;BME280;38616;42.140;24.760;2022-07-18T04:25:24;100130.50;;;23.66;27.70
52719;BME280;38616;42.140;24.760;2022-07-18T04:27:51;100127.84;;;23.69;27.33
52719;BME280;38616;42.140;24.760;2022-07-18T04:30:18;100136.69;;;23.59;27.54
52719;BME280;38616;42.140;24.760;2022-07-18T04:32:44;100131.97;;;23.75;27.08
52719;BME280;38616;42.140;24.760;2022-07-18T04:35:10;100139.84;;;23.73;27.33
52719;BME280;38616;42.140;24.760;2022-07-18T04:37:38;100142.16;;;23.87;27.29
52719;BME280;38616;42.140;24.760;2022-07-18T04:40:04;100139.63;;;23.98;27.23
52719;BME280;38616;42.140;24.760;2022-07-18T04:42:29;100150.06;;;24.01;27.30
52719;BME280;38616;42.140;24.760;2022-07-18T04:44:58;100147.19;;;23.82;27.24
52719;BME280;38616;42.140;24.760;2022-07-18T04:47:24;100154.59;;;23.78;27.43
52719;BME280;38616;42.140;24.760;2022-07-18T04:49:49;100151.72;;;23.74;27.19
52719;BME280;38616;42.140;24.760;2022-07-18T04:52:15;100157.94;;;23.99;26.94
52719;BME280;38616;42.140;24.760;2022-07-18T04:54:40;100173.63;;;23.63;27.18
52719;BME280;38616;42.140;24.760;2022-07-18T04:57:06;100181.97;;;23.35;27.74
52719;BME280;38616;42.140;24.760;2022-07-18T04:59:31;100182.81;;;23.23;27.64
52719;BME280;38616;42.140;24.760;2022-07-18T05:01:57;100175.16;;;23.32;27.94
52719;BME280;38616;42.140;24.760;2022-07-18T05:04:22;100187.06;;;23.33;28.12
52719;BME280;38616;42.140;24.760;2022-07-18T05:06:48;100195.72;;;23.31;27.58
52719;BME280;38616;42.140;24.760;2022-07-18T05:09:13;100190.88;;;23.28;28.14
52719;BME280;38616;42.140;24.760;2022-07-18T05:11:39;100190.56;;;23.17;27.69
52719;BME280;38616;42.140;24.760;2022-07-18T05:14:05;100191.81;;;23.20;28.45
52719;BME280;38616;42.140;24.760;2022-07-18T05:16:30;100182.69;;;23.31;28.10
52719;BME280;38616;42.140;24.760;2022-07-18T05:18:56;100193.09;;;23.51;28.12
52719;BME280;38616;42.140;24.760;2022-07-18T05:21:21;100185.00;;;23.74;27.66
52719;BME280;38616;42.140;24.760;2022-07-18T05:23:46;100186.28;;;23.76;27.53
52719;BME280;38616;42.140;24.760;2022-07-18T05:26:12;100184.88;;;23.99;27.36
52719;BME280;38616;42.140;24.760;2022-07-18T05:28:38;100193.38;;;24.06;27.15
52719;BME280;38616;42.140;24.760;2022-07-18T05:31:03;100195.38;;;23.93;27.52
52719;BME280;38616;42.140;24.760;2022-07-18T05:33:29;100189.72;;;23.57;27.93
52719;BME280;38616;42.140;24.760;2022-07-18T05:35:54;100191.44;;;23.62;28.00
52719;BME280;38616;42.140;24.760;2022-07-18T05:38:20;100192.63;;;23.93;27.38
52719;BME280;38616;42.140;24.760;2022-07-18T05:40:45;100193.63;;;23.85;27.77
52719;BME280;38616;42.140;24.760;2022-07-18T05:43:11;100189.25;;;24.16;27.67
52719;BME280;38616;42.140;24.760;2022-07-18T05:45:36;100187.81;;;24.22;27.49
52719;BME280;38616;42.140;24.760;2022-07-18T05:48:02;100187.09;;;24.25;27.01
52719;BME280;38616;42.140;24.760;2022-07-18T05:50:28;100184.59;;;24.20;27.35
52719;BME280;38616;42.140;24.760;2022-07-18T05:52:53;100184.16;;;24.18;27.11
52719;BME280;38616;42.140;24.760;2022-07-18T05:55:19;100181.56;;;24.09;27.56
52719;BME280;38616;42.140;24.760;2022-07-18T05:57:44;100170.81;;;24.24;27.82
52719;BME280;38616;42.140;24.760;2022-07-18T06:00:11;100168.19;;;24.31;27.18
52719;BME280;38616;42.140;24.760;2022-07-18T06:02:37;100180.56;;;24.33;27.49
52719;BME280;38616;42.140;24.760;2022-07-18T06:05:04;100162.41;;;24.20;27.45
52719;BME280;38616;42.140;24.760;2022-07-18T06:07:29;100163.91;;;24.33;27.74
52719;BME280;38616;42.140;24.760;2022-07-18T06:09:55;100160.53;;;24.60;27.59
52719;BME280;38616;42.140;24.760;2022-07-18T06:12:21;100158.66;;;24.64;27.82
52719;BME280;38616;42.140;24.760;2022-07-18T06:14:46;100157.97;;;24.87;27.67
52719;BME280;38616;42.140;24.760;2022-07-18T06:17:12;100169.28;;;24.78;27.30
52719;BME280;38616;42.140;24.760;2022-07-18T06:19:37;100168.13;;;24.79;27.36
52719;BME280;38616;42.140;24.760;2022-07-18T06:22:04;100157.31;;;25.13;27.79
52719;BME280;38616;42.140;24.760;2022-07-18T06:24:30;100162.19;;;25.40;27.63
52719;BME280;38616;42.140;24.760;2022-07-18T06:26:55;100151.41;;;25.15;27.95
52719;BME280;38616;42.140;24.760;2022-07-18T06:29:21;100163.31;;;24.96;27.59
52719;BME280;38616;42.140;24.760;2022-07-18T06:31:47;100168.28;;;24.34;28.35
52719;BME280;38616;42.140;24.760;2022-07-18T06:34:12;100168.44;;;24.58;27.67
52719;BME280;38616;42.140;24.760;2022-07-18T06:36:37;100168.81;;;24.56;28.41
52719;BME280;38616;42.140;24.760;2022-07-18T06:39:03;100166.31;;;24.51;27.85
52719;BME280;38616;42.140;24.760;2022-07-18T06:41:33;100167.91;;;24.36;27.35
52719;BME280;38616;42.140;24.760;2022-07-18T06:43:59;100162.28;;;24.32;28.28
52719;BME280;38616;42.140;24.760;2022-07-18T06:46:24;100171.50;;;24.88;28.03
52719;BME280;38616;42.140;24.760;2022-07-18T06:48:50;100174.94;;;24.82;27.79
52719;BME280;38616;42.140;24.760;2022-07-18T06:51:16;100163.75;;;24.62;27.28
52719;BME280;38616;42.140;24.760;2022-07-18T06:53:41;100167.78;;;24.64;27.65
52719;BME280;38616;42.140;24.760;2022-07-18T06:56:07;100171.50;;;25.08;27.44
52719;BME280;38616;42.140;24.760;2022-07-18T06:58:32;100177.94;;;24.92;26.60
52719;BME280;38616;42.140;24.760;2022-07-18T07:00:59;100171.09;;;24.70;26.67
52719;BME280;38616;42.140;24.760;2022-07-18T07:03:24;100181.41;;;24.70;26.59
52719;BME280;38616;42.140;24.760;2022-07-18T07:05:50;100175.38;;;24.84;26.30
52719;BME280;38616;42.140;24.760;2022-07-18T07:08:15;100164.94;;;25.36;26.45
52719;BME280;38616;42.140;24.760;2022-07-18T07:10:41;100169.19;;;25.49;26.18
52719;BME280;38616;42.140;24.760;2022-07-18T07:13:06;100170.72;;;25.70;25.68
52719;BME280;38616;42.140;24.760;2022-07-18T07:15:32;100168.19;;;25.42;26.10
52719;BME280;38616;42.140;24.760;2022-07-18T07:17:57;100162.34;;;25.90;25.98
52719;BME280;38616;42.140;24.760;2022-07-18T07:20:22;100167.09;;;25.89;25.72
52719;BME280;38616;42.140;24.760;2022-07-18T07:22:50;100171.38;;;25.20;25.66
52719;BME280;38616;42.140;24.760;2022-07-18T07:25:17;100157.47;;;25.40;26.14
52719;BME280;38616;42.140;24.760;2022-07-18T07:27:43;100163.75;;;25.57;26.30
52719;BME280;38616;42.140;24.760;2022-07-18T07:30:10;100159.72;;;25.77;26.39
52719;BME280;38616;42.140;24.760;2022-07-18T07:32:37;100154.72;;;26.33;25.11
52719;BME280;38616;42.140;24.760;2022-07-18T07:35:03;100161.34;;;26.25;25.90
52719;BME280;38616;42.140;24.760;2022-07-18T07:37:32;100159.84;;;26.08;25.97
52719;BME280;38616;42.140;24.760;2022-07-18T07:39:58;100160.97;;;26.03;25.74
52719;BME280;38616;42.140;24.760;2022-07-18T07:42:24;100165.81;;;25.83;25.36
52719;BME280;38616;42.140;24.760;2022-07-18T07:44:49;100151.06;;;26.29;24.90
52719;BME280;38616;42.140;24.760;2022-07-18T07:47:15;100155.66;;;26.18;25.05
52719;BME280;38616;42.140;24.760;2022-07-18T07:49:40;100149.53;;;26.08;24.28
52719;BME280;38616;42.140;24.760;2022-07-18T07:52:05;100154.84;;;26.17;24.50
52719;BME280;38616;42.140;24.760;2022-07-18T07:54:31;100151.47;;;26.58;24.39
52719;BME280;38616;42.140;24.760;2022-07-18T07:56:56;100150.91;;;26.76;25.21
52719;BME280;38616;42.140;24.760;2022-07-18T07:59:22;100157.66;;;26.75;24.40
52719;BME280;38616;42.140;24.760;2022-07-18T08:01:47;100154.44;;;26.69;24.07
52719;BME280;38616;42.140;24.760;2022-07-18T08:04:13;100163.81;;;26.84;23.60
52719;BME280;38616;42.140;24.760;2022-07-18T08:06:38;100164.09;;;26.79;23.47
52719;BME280;38616;42.140;24.760;2022-07-18T08:09:03;100155.19;;;26.66;23.78
52719;BME280;38616;42.140;24.760;2022-07-18T08:11:31;100151.31;;;27.05;23.43
52719;BME280;38616;42.140;24.760;2022-07-18T08:13:57;100148.81;;;27.30;22.75
52719;BME280;38616;42.140;24.760;2022-07-18T08:16:22;100155.72;;;27.06;22.91
52719;BME280;38616;42.140;24.760;2022-07-18T08:18:48;100153.25;;;27.35;22.99
52719;BME280;38616;42.140;24.760;2022-07-18T08:21:13;100152.63;;;27.49;22.77
52719;BME280;38616;42.140;24.760;2022-07-18T08:23:39;100152.91;;;26.75;22.64
52719;BME280;38616;42.140;24.760;2022-07-18T08:26:04;100152.31;;;26.62;22.62
52719;BME280;38616;42.140;24.760;2022-07-18T08:28:30;100147.38;;;26.48;23.31
52719;BME280;38616;42.140;24.760;2022-07-18T08:30:55;100154.69;;;26.60;22.93
52719;BME280;38616;42.140;24.760;2022-07-18T08:33:39;100150.06;;;27.36;22.62
52719;BME280;38616;42.140;24.760;2022-07-18T08:36:05;100141.53;;;27.56;22.10
52719;BME280;38616;42.140;24.760;2022-07-18T08:38:32;100150.94;;;27.44;22.70
52719;BME280;38616;42.140;24.760;2022-07-18T08:40:58;100148.41;;;27.66;22.45
52719;BME280;38616;42.140;24.760;2022-07-18T08:43:24;100145.72;;;27.77;22.46
52719;BME280;38616;42.140;24.760;2022-07-18T08:45:54;100150.22;;;27.88;22.86
52719;BME280;38616;42.140;24.760;2022-07-18T08:48:20;100143.84;;;27.92;22.23
52719;BME280;38616;42.140;24.760;2022-07-18T08:50:47;100147.63;;;27.69;22.00
52719;BME280;38616;42.140;24.760;2022-07-18T08:53:14;100149.53;;;27.57;22.34
52719;BME280;38616;42.140;24.760;2022-07-18T08:55:39;100151.25;;;27.32;23.00
52719;BME280;38616;42.140;24.760;2022-07-18T08:58:05;100148.91;;;27.75;22.90
52719;BME280;38616;42.140;24.760;2022-07-18T09:00:30;100145.59;;;28.07;22.48
52719;BME280;38616;42.140;24.760;2022-07-18T09:02:58;100145.72;;;28.22;23.00
52719;BME280;38616;42.140;24.760;2022-07-18T09:05:23;100141.03;;;28.40;22.89
52719;BME280;38616;42.140;24.760;2022-07-18T09:07:49;100136.75;;;28.61;22.50
52719;BME280;38616;42.140;24.760;2022-07-18T09:10:14;100142.34;;;28.61;22.50
52719;BME280;38616;42.140;24.760;2022-07-18T09:12:55;100151.56;;;28.65;22.68
52719;BME280;38616;42.140;24.760;2022-07-18T09:15:21;100145.97;;;28.61;22.63
52719;BME280;38616;42.140;24.760;2022-07-18T09:17:49;100146.78;;;28.69;22.36
52719;BME280;38616;42.140;24.760;2022-07-18T09:20:15;100142.31;;;28.50;22.45
52719;BME280;38616;42.140;24.760;2022-07-18T09:22:45;100145.16;;;28.57;22.25
52719;BME280;38616;42.140;24.760;2022-07-18T09:25:19;100146.75;;;28.58;22.06
52719;BME280;38616;42.140;24.760;2022-07-18T09:27:52;100155.88;;;28.52;21.93
52719;BME280;38616;42.140;24.760;2022-07-18T09:35:27;100151.34;;;28.29;22.90
52719;BME280;38616;42.140;24.760;2022-07-18T09:40:34;100155.75;;;27.47;23.21
52719;BME280;38616;42.140;24.760;2022-07-18T09:43:02;100146.72;;;27.54;23.55
52719;BME280;38616;42.140;24.760;2022-07-18T09:45:31;100149.13;;;27.21;23.58
52719;BME280;38616;42.140;24.760;2022-07-18T09:48:00;100146.97;;;27.45;23.40
52719;BME280;38616;42.140;24.760;2022-07-18T09:50:35;100130.66;;;27.88;23.27
52719;BME280;38616;42.140;24.760;2022-07-18T09:53:07;100139.06;;;28.44;22.56
52719;BME280;38616;42.140;24.760;2022-07-18T09:55:34;100135.56;;;28.62;22.17
52719;BME280;38616;42.140;24.760;2022-07-18T09:58:05;100131.22;;;28.72;22.51
52719;BME280;38616;42.140;24.760;2022-07-18T10:00:33;100130.16;;;28.91;22.39
52719;BME280;38616;42.140;24.760;2022-07-18T10:03:00;100132.16;;;28.94;22.29
52719;BME280;38616;42.140;24.760;2022-07-18T10:05:31;100136.22;;;29.18;21.86
52719;BME280;38616;42.140;24.760;2022-07-18T10:08:00;100123.47;;;29.28;22.41
52719;BME280;38616;42.140;24.760;2022-07-18T10:10:28;100117.06;;;29.28;22.09
52719;BME280;38616;42.140;24.760;2022-07-18T10:12:54;100113.84;;;29.11;21.56
52719;BME280;38616;42.140;24.760;2022-07-18T10:15:25;100116.19;;;28.98;22.35
52719;BME280;38616;42.140;24.760;2022-07-18T10:17:50;100108.28;;;29.26;22.36
52719;BME280;38616;42.140;24.760;2022-07-18T10:20:16;100117.03;;;29.17;22.56
52719;BME280;38616;42.140;24.760;2022-07-18T10:22:43;100101.88;;;29.25;22.08
52719;BME280;38616;42.140;24.760;2022-07-18T10:25:11;100104.22;;;29.05;22.37
52719;BME280;38616;42.140;24.760;2022-07-18T10:27:48;100103.47;;;29.12;22.94
52719;BME280;38616;42.140;24.760;2022-07-18T10:30:14;100100.28;;;29.24;22.95
52719;BME280;38616;42.140;24.760;2022-07-18T10:32:41;100104.28;;;29.30;22.94
52719;BME280;38616;42.140;24.760;2022-07-18T10:35:08;100099.47;;;29.27;22.85
52719;BME280;38616;42.140;24.760;2022-07-18T10:37:36;100098.28;;;29.17;23.68
52719;BME280;38616;42.140;24.760;2022-07-18T10:40:22;100098.66;;;28.24;24.47
52719;BME280;38616;42.140;24.760;2022-07-18T10:45:51;100091.06;;;28.21;25.38
52719;BME280;38616;42.140;24.760;2022-07-18T10:58:58;100083.06;;;29.00;24.84
52719;BME280;38616;42.140;24.760;2022-07-18T11:01:25;100088.03;;;28.55;25.60
52719;BME280;38616;42.140;24.760;2022-07-18T11:04:26;100086.44;;;28.54;25.34
52719;BME280;38616;42.140;24.760;2022-07-18T11:06:56;100082.47;;;28.62;25.44
52719;BME280;38616;42.140;24.760;2022-07-18T11:09:44;100072.16;;;28.73;24.75
52719;BME280;38616;42.140;24.760;2022-07-18T11:15:07;100070.28;;;29.21;24.22
52719;BME280;38616;42.140;24.760;2022-07-18T11:22:58;100066.78;;;29.53;23.67
52719;BME280;38616;42.140;24.760;2022-07-18T11:25:26;100065.19;;;29.67;23.78
52719;BME280;38616;42.140;24.760;2022-07-18T11:27:53;100059.91;;;29.25;24.00
52719;BME280;38616;42.140;24.760;2022-07-18T11:30:19;100052.72;;;29.20;24.07
52719;BME280;38616;42.140;24.760;2022-07-18T11:32:45;100042.34;;;29.28;24.16
52719;BME280;38616;42.140;24.760;2022-07-18T11:35:13;100053.16;;;29.30;24.59
52719;BME280;38616;42.140;24.760;2022-07-18T11:37:38;100057.97;;;29.44;24.45
52719;BME280;38616;42.140;24.760;2022-07-18T11:40:08;100052.78;;;29.60;23.91
52719;BME280;38616;42.140;24.760;2022-07-18T11:42:40;100049.19;;;29.45;24.68
52719;BME280;38616;42.140;24.760;2022-07-18T11:45:09;100044.78;;;29.48;25.09
52719;BME280;38616;42.140;24.760;2022-07-18T11:47:48;100040.38;;;29.69;24.92
52719;BME280;38616;42.140;24.760;2022-07-18T11:50:16;100034.38;;;29.59;24.89
52719;BME280;38616;42.140;24.760;2022-07-18T11:52:42;100029.16;;;29.72;25.23
52719;BME280;38616;42.140;24.760;2022-07-18T11:55:08;100027.19;;;29.80;25.09
52719;BME280;38616;42.140;24.760;2022-07-18T11:57:34;100023.94;;;29.96;25.04
52719;BME280;38616;42.140;24.760;2022-07-18T12:00:00;100023.97;;;29.92;24.56
52719;BME280;38616;42.140;24.760;2022-07-18T12:02:38;100025.97;;;29.99;23.92
52719;BME280;38616;42.140;24.760;2022-07-18T12:05:04;100028.78;;;29.52;24.15
52719;BME280;38616;42.140;24.760;2022-07-18T12:07:29;100022.00;;;29.46;24.47
52719;BME280;38616;42.140;24.760;2022-07-18T12:09:54;100021.59;;;29.51;24.62
52719;BME280;38616;42.140;24.760;2022-07-18T12:12:22;100017.19;;;29.79;24.33
52719;BME280;38616;42.140;24.760;2022-07-18T12:14:55;100019.59;;;29.99;24.05
52719;BME280;38616;42.140;24.760;2022-07-18T12:17:21;100009.16;;;29.96;23.82
52719;BME280;38616;42.140;24.760;2022-07-18T12:19:47;100007.50;;;30.16;23.53
52719;BME280;38616;42.140;24.760;2022-07-18T12:22:12;100003.91;;;30.12;23.78
52719;BME280;38616;42.140;24.760;2022-07-18T12:24:39;100005.13;;;30.04;24.01
52719;BME280;38616;42.140;24.760;2022-07-18T12:33:01;100000.22;;;30.41;24.61
52719;BME280;38616;42.140;24.760;2022-07-18T12:35:36;100001.78;;;30.52;24.34
52719;BME280;38616;42.140;24.760;2022-07-18T12:38:08;99999.53;;;30.07;24.35
52719;BME280;38616;42.140;24.760;2022-07-18T12:45:39;99990.22;;;30.36;25.12
52719;BME280;38616;42.140;24.760;2022-07-18T12:48:06;99982.59;;;30.40;25.63
52719;BME280;38616;42.140;24.760;2022-07-18T12:50:33;99984.97;;;30.45;25.62
52719;BME280;38616;42.140;24.760;2022-07-18T12:52:58;99984.19;;;30.41;25.13
52719;BME280;38616;42.140;24.760;2022-07-18T12:55:25;99981.47;;;30.30;25.33
52719;BME280;38616;42.140;24.760;2022-07-18T12:57:51;99972.63;;;30.32;25.50
52719;BME280;38616;42.140;24.760;2022-07-18T13:00:16;99981.81;;;30.40;25.47
52719;BME280;38616;42.140;24.760;2022-07-18T13:02:43;99979.44;;;30.31;26.12
52719;BME280;38616;42.140;24.760;2022-07-18T13:05:09;99980.63;;;30.41;25.95
52719;BME280;38616;42.140;24.760;2022-07-18T13:07:34;99968.91;;;30.57;25.75
52719;BME280;38616;42.140;24.760;2022-07-18T13:12:44;99964.97;;;30.43;26.02
52719;BME280;38616;42.140;24.760;2022-07-18T13:15:10;99972.22;;;30.37;26.20
52719;BME280;38616;42.140;24.760;2022-07-18T13:17:35;99957.69;;;30.60;25.73
52719;BME280;38616;42.140;24.760;2022-07-18T13:20:01;99954.13;;;30.60;26.20
52719;BME280;38616;42.140;24.760;2022-07-18T13:22:30;99953.84;;;30.32;26.05